Time;durP1;ratioP1;P1;durP2;ratioP2;P2;SDS_P1;SDS_P2;PMS_P1;PMS_P2;Temp;Humidity;BMP_temperature;BMP_pressure;BME280_temperature;BME280_humidity;BME280_pressure;Samples;Min_cycle;Max_cycle;Signal;HPM_P1;HPM_P2
2021/06/13 00:01:35;;;;;;;6.70;4.13;;;;;;;;;;10534069;28;20192;-66
2021/06/13 00:06:37;;;;;;;7.13;4.00;;;;;;;;;;10533959;28;20227;-67
2021/06/13 00:11:40;;;;;;;7.40;4.10;;;;;;;;;;10536241;28;20216;-67
2021/06/13 00:16:42;;;;;;;8.33;4.13;;;;;;;;;;10540076;28;20306;-69
2021/06/13 00:21:45;;;;;;;7.73;4.23;;;;;;;;;;10522804;28;20188;-69
2021/06/13 00:26:48;;;;;;;6.73;3.87;;;;;;;;;;10534788;28;20210;-69
2021/06/13 00:31:50;;;;;;;7.70;4.40;;;;;;;;;;10524052;28;20236;-68
2021/06/13 00:36:52;;;;;;;7.70;4.83;;;;;;;;;;10530368;28;21515;-69
2021/06/13 00:41:56;;;;;;;8.33;4.73;;;;;;;;;;10528077;28;20245;-69
2021/06/13 00:46:58;;;;;;;7.77;4.43;;;;;;;;;;10533295;28;20709;-69
2021/06/13 00:52:01;;;;;;;8.33;4.80;;;;;;;;;;10517954;28;20200;-67
2021/06/13 00:57:05;;;;;;;8.50;4.80;;;;;;;;;;10524825;28;20309;-68
2021/06/13 01:02:07;;;;;;;7.67;4.60;;;;;;;;;;10529573;28;20606;-68
2021/06/13 01:07:13;;;;;;;8.00;4.53;;;;;;;;;;10531187;28;20272;-69
2021/06/13 01:12:19;;;;;;;8.37;4.80;;;;;;;;;;10529996;28;20235;-70
2021/06/13 01:17:25;;;;;;;7.83;4.53;;;;;;;;;;10529727;28;20223;-68
2021/06/13 01:22:38;;;;;;;7.23;4.20;;;;;;;;;;10531802;28;20243;-69
2021/06/13 01:27:58;;;;;;;8.20;4.80;;;;;;;;;;10531187;28;20226;-68
2021/06/13 01:33:04;;;;;;;9.83;5.50;;;;;;;;;;10517152;28;20223;-67
2021/06/13 01:38:08;;;;;;;8.70;5.10;;;;;;;;;;10518598;28;20212;-69
2021/06/13 01:43:12;;;;;;;8.50;5.03;;;;;;;;;;10531714;28;20191;-68
2021/06/13 01:48:16;;;;;;;8.43;4.77;;;;;;;;;;10526874;28;20242;-67
2021/06/13 01:53:19;;;;;;;8.93;5.23;;;;;;;;;;10527408;28;20231;-71
2021/06/13 01:58:22;;;;;;;8.30;5.20;;;;;;;;;;10526821;28;20218;-68
2021/06/13 02:03:26;;;;;;;9.03;5.27;;;;;;;;;;10527704;28;20290;-69
2021/06/13 02:08:30;;;;;;;10.10;5.90;;;;;;;;;;10529333;28;20238;-68
2021/06/13 02:13:32;;;;;;;11.17;6.20;;;;;;;;;;10526237;28;20225;-68
2021/06/13 02:18:37;;;;;;;8.13;5.30;;;;;;;;;;10529138;28;20698;-67
2021/06/13 02:23:40;;;;;;;9.07;5.40;;;;;;;;;;10526369;28;20630;-68
2021/06/13 02:28:43;;;;;;;9.27;5.40;;;;;;;;;;10528816;28;20221;-68
2021/06/13 02:33:47;;;;;;;9.33;5.40;;;;;;;;;;10530365;28;20223;-68
2021/06/13 02:38:51;;;;;;;9.63;5.70;;;;;;;;;;10517994;28;20250;-69
2021/06/13 02:43:55;;;;;;;8.90;5.17;;;;;;;;;;10528949;28;20198;-69
2021/06/13 02:48:58;;;;;;;10.43;5.80;;;;;;;;;;10524889;28;20302;-67
2021/06/13 02:54:01;;;;;;;8.90;5.27;;;;;;;;;;10519377;28;20294;-68
2021/06/13 02:59:08;;;;;;;9.73;5.30;;;;;;;;;;10528907;28;20215;-68
2021/06/13 03:04:12;;;;;;;11.00;6.00;;;;;;;;;;10525951;28;20615;-68
2021/06/13 03:09:14;;;;;;;10.17;5.70;;;;;;;;;;10527864;28;20764;-68
2021/06/13 03:14:16;;;;;;;11.07;6.20;;;;;;;;;;10525357;28;20265;-69
2021/06/13 03:19:20;;;;;;;9.20;5.83;;;;;;;;;;10529023;28;20333;-67
2021/06/13 03:24:23;;;;;;;8.40;5.40;;;;;;;;;;10524432;28;20211;-67
2021/06/13 03:29:26;;;;;;;10.97;5.50;;;;;;;;;;10528104;28;20245;-69
2021/06/13 03:34:30;;;;;;;12.30;5.80;;;;;;;;;;10533133;28;20247;-71
2021/06/13 03:39:35;;;;;;;9.50;5.47;;;;;;;;;;10529985;28;20307;-69
2021/06/13 03:44:38;;;;;;;10.17;5.50;;;;;;;;;;10527185;28;20274;-70
2021/06/13 03:49:42;;;;;;;11.33;6.03;;;;;;;;;;10528030;28;20216;-68
2021/06/13 03:54:44;;;;;;;11.00;5.77;;;;;;;;;;10529984;28;20314;-67
2021/06/13 03:59:48;;;;;;;10.20;5.53;;;;;;;;;;10535371;28;20256;-66
2021/06/13 04:04:53;;;;;;;9.87;5.60;;;;;;;;;;10529091;28;20203;-68
2021/06/13 04:09:55;;;;;;;15.57;6.30;;;;;;;;;;10529217;28;20231;-68
2021/06/13 04:14:59;;;;;;;11.33;6.13;;;;;;;;;;10533454;28;20210;-67
2021/06/13 04:20:23;;;;;;;9.63;5.50;;;;;;;;;;10544680;28;20671;-68
2021/06/13 04:25:46;;;;;;;9.50;5.90;;;;;;;;;;10529931;28;20353;-68
2021/06/13 04:30:58;;;;;;;10.50;5.80;;;;;;;;;;10532223;28;20234;-67
2021/06/13 04:36:02;;;;;;;9.67;5.27;;;;;;;;;;10534010;28;20269;-67
2021/06/13 04:41:05;;;;;;;10.20;5.57;;;;;;;;;;10531535;28;20271;-69
2021/06/13 04:46:09;;;;;;;9.43;5.33;;;;;;;;;;10539468;28;20223;-69
2021/06/13 04:51:13;;;;;;;8.77;4.97;;;;;;;;;;10552462;28;20282;-70
2021/06/13 04:56:19;;;;;;;9.47;5.20;;;;;;;;;;10547963;28;20220;-70
2021/06/13 05:01:21;;;;;;;10.60;5.00;;;;;;;;;;10536245;28;20279;-69
2021/06/13 05:06:26;;;;;;;9.70;5.30;;;;;;;;;;10529729;28;20687;-69
2021/06/13 05:11:28;;;;;;;10.17;4.77;;;;;;;;;;10532466;28;20303;-69
2021/06/13 05:16:31;;;;;;;8.80;4.30;;;;;;;;;;10535684;28;20303;-68
2021/06/13 05:21:35;;;;;;;7.80;4.23;;;;;;;;;;10524501;28;20195;-70
2021/06/13 05:26:37;;;;;;;8.07;4.10;;;;;;;;;;10546730;28;20299;-68
2021/06/13 05:31:40;;;;;;;8.23;3.73;;;;;;;;;;10525976;28;20536;-70
2021/06/13 05:36:44;;;;;;;8.70;3.80;;;;;;;;;;10522512;28;20208;-70
2021/06/13 05:41:46;;;;;;;7.07;4.00;;;;;;;;;;10524581;28;20672;-68
2021/06/13 05:46:49;;;;;;;9.07;4.00;;;;;;;;;;10524960;28;20697;-69
2021/06/13 05:51:53;;;;;;;7.67;3.70;;;;;;;;;;10524358;28;20574;-69
2021/06/13 05:56:55;;;;;;;8.37;4.17;;;;;;;;;;10523529;28;20590;-70
2021/06/13 06:01:58;;;;;;;7.73;3.97;;;;;;;;;;10528657;28;20225;-70
2021/06/13 06:07:02;;;;;;;8.37;3.80;;;;;;;;;;10534055;28;20611;-70
2021/06/13 06:12:05;;;;;;;8.17;3.77;;;;;;;;;;10540800;28;20276;-70
2021/06/13 06:17:07;;;;;;;8.70;3.33;;;;;;;;;;10527261;28;20224;-68
2021/06/13 06:22:12;;;;;;;8.47;3.73;;;;;;;;;;10528415;28;20671;-69
2021/06/13 06:27:14;;;;;;;7.83;3.80;;;;;;;;;;10522807;28;20239;-69
2021/06/13 06:32:17;;;;;;;10.10;3.70;;;;;;;;;;10526351;28;20294;-70
2021/06/13 06:37:21;;;;;;;7.60;4.20;;;;;;;;;;10521861;28;20219;-69
2021/06/13 06:42:23;;;;;;;7.27;3.53;;;;;;;;;;10528888;28;20622;-69
2021/06/13 06:47:27;;;;;;;7.37;4.20;;;;;;;;;;10524791;28;20211;-69
2021/06/13 06:52:31;;;;;;;10.80;4.83;;;;;;;;;;10519275;28;20912;-70
2021/06/13 06:57:34;;;;;;;8.40;3.87;;;;;;;;;;10531386;28;20223;-69
2021/06/13 07:02:37;;;;;;;7.10;3.80;;;;;;;;;;10548303;28;20192;-69
2021/06/13 07:07:42;;;;;;;7.30;3.57;;;;;;;;;;10537135;28;20299;-70
2021/06/13 07:12:45;;;;;;;9.20;3.47;;;;;;;;;;10530227;28;20203;-69
2021/06/13 07:17:48;;;;;;;7.80;3.87;;;;;;;;;;10545141;28;20593;-68
2021/06/13 07:22:52;;;;;;;9.60;4.10;;;;;;;;;;10545721;28;20195;-71
2021/06/13 07:27:55;;;;;;;9.10;4.07;;;;;;;;;;10555146;28;20294;-70
2021/06/13 07:32:58;;;;;;;7.40;3.73;;;;;;;;;;10547106;28;20286;-69
2021/06/13 07:38:03;;;;;;;7.93;3.90;;;;;;;;;;10538043;28;20223;-70
2021/06/13 07:43:05;;;;;;;7.27;3.70;;;;;;;;;;10550983;28;20643;-69
2021/06/13 07:48:09;;;;;;;8.27;3.80;;;;;;;;;;10547931;28;20207;-70
2021/06/13 07:53:13;;;;;;;8.43;3.60;;;;;;;;;;10545191;28;20236;-70
2021/06/13 07:58:16;;;;;;;8.48;3.90;;;;;;;;;;10549173;28;20692;-69
2021/06/13 08:03:18;;;;;;;6.95;3.72;;;;;;;;;;10531384;28;20252;-69
2021/06/13 08:08:22;;;;;;;9.82;4.15;;;;;;;;;;10530274;28;20215;-69
2021/06/13 08:13:25;;;;;;;7.40;3.80;;;;;;;;;;10534176;28;20735;-70
2021/06/13 08:18:28;;;;;;;7.50;4.00;;;;;;;;;;10530737;28;20848;-69
2021/06/13 08:23:35;;;;;;;7.22;4.10;;;;;;;;;;10529938;28;20257;-69
2021/06/13 08:28:37;;;;;;;6.72;3.70;;;;;;;;;;10530641;28;20690;-70
2021/06/13 08:33:40;;;;;;;8.90;4.20;;;;;;;;;;10525533;28;20675;-69
2021/06/13 08:38:44;;;;;;;9.35;5.63;;;;;;;;;;10530074;28;20400;-70
2021/06/13 08:43:47;;;;;;;7.68;4.30;;;;;;;;;;10527386;28;20192;-71
2021/06/13 08:49:02;;;;;;;7.32;4.25;;;;;;;;;;10530972;28;20338;-71
2021/06/13 08:54:06;;;;;;;6.47;3.67;;;;;;;;;;10521023;28;20229;-67
2021/06/13 08:59:08;;;;;;;7.43;4.03;;;;;;;;;;10529641;28;20586;-67
2021/06/13 09:04:11;;;;;;;7.72;3.90;;;;;;;;;;10532173;28;20200;-66
2021/06/13 09:09:18;;;;;;;7.15;3.70;;;;;;;;;;10528967;28;20950;-66
2021/06/13 09:14:21;;;;;;;5.47;3.03;;;;;;;;;;10531051;28;20223;-67
2021/06/13 09:19:23;;;;;;;5.90;3.83;;;;;;;;;;10527644;28;20640;-67
2021/06/13 09:24:27;;;;;;;5.15;2.85;;;;;;;;;;10528622;28;20215;-68
2021/06/13 09:29:45;;;;;;;5.70;3.20;;;;;;;;;;10530172;28;20251;-68
2021/06/13 09:34:49;;;;;;;6.00;3.00;;;;;;;;;;10526847;28;20269;-67
2021/06/13 09:39:53;;;;;;;4.85;2.80;;;;;;;;;;10530155;28;20290;-68
2021/06/13 09:44:59;;;;;;;6.15;3.03;;;;;;;;;;10528454;28;20654;-69
2021/06/13 09:50:01;;;;;;;4.75;2.85;;;;;;;;;;10526987;28;20361;-68
2021/06/13 09:55:12;;;;;;;6.10;3.63;;;;;;;;;;10523372;28;20222;-67
2021/06/13 10:00:24;;;;;;;4.25;2.63;;;;;;;;;;10529360;28;20268;-67
2021/06/13 10:05:26;;;;;;;4.68;2.90;;;;;;;;;;10529891;28;20235;-68
2021/06/13 10:10:42;;;;;;;6.38;3.50;;;;;;;;;;10523501;28;20278;-68
2021/06/13 10:15:50;;;;;;;5.18;3.13;;;;;;;;;;10525811;28;20571;-68
2021/06/13 10:21:05;;;;;;;5.35;2.95;;;;;;;;;;10505028;28;20270;-68
2021/06/13 10:26:09;;;;;;;4.45;2.60;;;;;;;;;;10518421;28;20285;-67
2021/06/13 10:31:12;;;;;;;6.00;3.13;;;;;;;;;;10528471;28;20582;-67
2021/06/13 10:36:15;;;;;;;5.18;2.97;;;;;;;;;;10523735;28;20321;-66
2021/06/13 10:41:19;;;;;;;4.95;2.63;;;;;;;;;;10529144;28;20528;-68
2021/06/13 10:46:26;;;;;;;11.75;10.52;;;;;;;;;;10520118;28;20216;-68
2021/06/13 10:51:32;;;;;;;7.30;4.22;;;;;;;;;;10526703;28;20187;-67
2021/06/13 10:56:35;;;;;;;4.63;2.75;;;;;;;;;;10528666;28;20250;-68
2021/06/13 11:01:55;;;;;;;7.10;4.30;;;;;;;;;;10534416;28;20186;-67
2021/06/13 11:06:58;;;;;;;5.00;3.00;;;;;;;;;;10529246;28;20256;-67
2021/06/13 11:12:02;;;;;;;6.68;3.38;;;;;;;;;;10526808;28;20195;-67
2021/06/13 11:17:04;;;;;;;5.97;3.30;;;;;;;;;;10535535;28;20235;-67
2021/06/13 11:22:26;;;;;;;5.32;3.03;;;;;;;;;;10533204;28;20195;-67
2021/06/13 11:27:32;;;;;;;7.10;3.72;;;;;;;;;;10535766;28;20222;-67
2021/06/13 11:32:50;;;;;;;4.70;2.88;;;;;;;;;;10528909;28;20286;-68
2021/06/13 11:38:08;;;;;;;4.13;2.50;;;;;;;;;;10527070;28;20272;-67
2021/06/13 11:43:13;;;;;;;6.22;3.13;;;;;;;;;;10532022;28;20224;-67
2021/06/13 11:48:19;;;;;;;4.22;2.70;;;;;;;;;;10534712;28;20216;-68
2021/06/13 11:53:46;;;;;;;5.65;2.60;;;;;;;;;;10532020;28;20224;-67
2021/06/13 11:58:57;;;;;;;4.57;2.40;;;;;;;;;;10532989;28;20592;-67
2021/06/13 12:04:00;;;;;;;5.75;2.83;;;;;;;;;;10518938;28;20225;-68
2021/06/13 12:09:05;;;;;;;5.40;2.50;;;;;;;;;;10526460;28;20298;-67
2021/06/13 12:14:29;;;;;;;6.20;3.10;;;;;;;;;;10534297;28;20221;-68
2021/06/13 12:19:35;;;;;;;5.70;3.22;;;;;;;;;;10530431;28;20299;-66
2021/06/13 12:27:21;;;;;;;4.78;2.60;;;;;;;;;;10533387;28;20681;-68
2021/06/13 12:30:04;;;;;;;4.07;2.38;;;;;;;;;;10528267;28;20191;-67
2021/06/13 12:35:09;;;;;;;4.75;2.35;;;;;;;;;;10531071;28;20211;-67
2021/06/13 12:40:13;;;;;;;3.25;2.10;;;;;;;;;;10529979;28;20274;-67
2021/06/13 12:45:18;;;;;;;3.38;2.20;;;;;;;;;;10531824;28;20632;-68
2021/06/13 12:50:21;;;;;;;3.10;2.25;;;;;;;;;;10532393;28;20202;-66
2021/06/13 12:55:24;;;;;;;4.13;2.22;;;;;;;;;;10523351;28;20215;-66
2021/06/13 13:00:28;;;;;;;3.22;2.00;;;;;;;;;;10530917;28;20677;-67
2021/06/13 13:05:30;;;;;;;3.50;1.92;;;;;;;;;;10530661;28;20561;-66
2021/06/13 13:10:33;;;;;;;2.08;1.58;;;;;;;;;;10520537;28;20647;-66
2021/06/13 13:15:41;;;;;;;4.68;2.47;;;;;;;;;;10530149;28;20295;-67
2021/06/13 13:20:47;;;;;;;2.92;1.92;;;;;;;;;;10528892;28;20188;-66
2021/06/13 13:25:50;;;;;;;5.18;2.92;;;;;;;;;;10530563;28;20199;-67
2021/06/13 13:30:55;;;;;;;4.70;2.10;;;;;;;;;;10530263;28;20204;-68
2021/06/13 13:35:58;;;;;;;4.65;2.03;;;;;;;;;;10525910;28;20215;-66
2021/06/13 13:41:00;;;;;;;4.30;1.65;;;;;;;;;;10527601;28;20371;-66
2021/06/13 13:46:04;;;;;;;2.38;1.88;;;;;;;;;;10525102;28;20296;-67
2021/06/13 13:51:07;;;;;;;6.75;3.30;;;;;;;;;;10525446;28;20222;-66
2021/06/13 13:56:10;;;;;;;4.35;1.80;;;;;;;;;;10534108;28;20408;-68
2021/06/13 14:01:14;;;;;;;2.65;1.58;;;;;;;;;;10523229;28;20220;-65
2021/06/13 14:06:18;;;;;;;3.17;1.75;;;;;;;;;;10522787;28;20261;-65
2021/06/13 14:11:21;;;;;;;3.30;1.98;;;;;;;;;;10521932;28;20344;-67
2021/06/13 14:16:25;;;;;;;4.38;1.90;;;;;;;;;;10521857;28;20611;-66
2021/06/13 14:21:28;;;;;;;4.82;1.80;;;;;;;;;;10525784;28;20233;-67
2021/06/13 14:26:30;;;;;;;2.72;1.90;;;;;;;;;;10525966;28;20331;-66
2021/06/13 14:31:34;;;;;;;3.88;1.98;;;;;;;;;;10526604;28;20195;-67
2021/06/13 14:36:37;;;;;;;4.38;2.10;;;;;;;;;;10529190;28;20238;-65
2021/06/13 14:41:39;;;;;;;5.22;2.58;;;;;;;;;;10515252;28;20270;-66
2021/06/13 14:46:45;;;;;;;4.00;1.80;;;;;;;;;;10521115;28;20858;-67
2021/06/13 14:51:48;;;;;;;4.68;2.35;;;;;;;;;;10528605;28;20241;-67
2021/06/13 14:56:51;;;;;;;4.30;1.63;;;;;;;;;;10521269;28;20214;-68
2021/06/13 15:01:55;;;;;;;3.85;1.83;;;;;;;;;;10538957;28;20215;-67
2021/06/13 15:06:58;;;;;;;5.05;2.15;;;;;;;;;;10529357;28;20639;-67
2021/06/13 15:12:01;;;;;;;4.80;2.30;;;;;;;;;;10535264;28;20191;-67
2021/06/13 15:17:05;;;;;;;2.85;1.73;;;;;;;;;;10538163;28;20220;-68
2021/06/13 15:22:08;;;;;;;5.80;3.00;;;;;;;;;;10533835;28;20279;-67
2021/06/13 15:27:13;;;;;;;5.72;2.85;;;;;;;;;;10537661;28;20199;-67
2021/06/13 15:32:17;;;;;;;5.50;1.80;;;;;;;;;;10539017;28;20544;-67
2021/06/13 15:37:20;;;;;;;4.03;2.00;;;;;;;;;;10547148;28;20679;-67
2021/06/13 15:42:23;;;;;;;5.13;2.53;;;;;;;;;;10530053;28;20194;-66
2021/06/13 15:47:26;;;;;;;4.97;2.03;;;;;;;;;;10551717;28;20658;-66
2021/06/13 15:52:33;;;;;;;6.85;3.22;;;;;;;;;;10532914;28;20259;-67
2021/06/13 15:57:36;;;;;;;3.58;1.80;;;;;;;;;;10531659;28;20223;-67
2021/06/13 16:02:39;;;;;;;5.88;2.35;;;;;;;;;;10534422;28;20192;-67
2021/06/13 16:07:43;;;;;;;3.72;1.80;;;;;;;;;;10550476;28;20289;-67
2021/06/13 16:12:46;;;;;;;4.40;2.20;;;;;;;;;;10532688;28;20184;-67
2021/06/13 16:17:49;;;;;;;3.85;1.70;;;;;;;;;;10534034;28;20243;-66
2021/06/13 16:22:52;;;;;;;4.38;2.40;;;;;;;;;;10530024;28;20631;-68
2021/06/13 16:27:55;;;;;;;3.35;2.08;;;;;;;;;;10525953;28;20273;-68
2021/06/13 16:32:58;;;;;;;3.67;1.42;;;;;;;;;;10532313;28;20192;-68
2021/06/13 16:38:01;;;;;;;3.67;1.75;;;;;;;;;;10528914;28;20220;-68
2021/06/13 16:43:04;;;;;;;3.97;1.50;;;;;;;;;;10530193;28;20356;-67
2021/06/13 16:48:08;;;;;;;5.55;1.88;;;;;;;;;;10533037;28;20227;-68
2021/06/13 16:53:11;;;;;;;3.15;1.60;;;;;;;;;;10532996;28;20249;-68
2021/06/13 16:58:14;;;;;;;3.65;1.48;;;;;;;;;;10528289;28;20231;-68
2021/06/13 17:03:18;;;;;;;4.03;1.70;;;;;;;;;;10532566;28;20642;-69
2021/06/13 17:08:20;;;;;;;3.87;1.50;;;;;;;;;;10530112;28;20212;-66
2021/06/13 17:13:23;;;;;;;6.60;3.00;;;;;;;;;;10532157;28;20647;-67
2021/06/13 17:18:27;;;;;;;4.67;1.70;;;;;;;;;;10531107;28;20229;-67
2021/06/13 17:23:33;;;;;;;3.60;1.60;;;;;;;;;;10531250;28;20199;-69
2021/06/13 17:28:36;;;;;;;3.73;1.90;;;;;;;;;;10530435;28;20227;-67
2021/06/13 17:33:40;;;;;;;3.33;1.43;;;;;;;;;;10531380;28;20706;-69
2021/06/13 17:38:43;;;;;;;3.10;1.40;;;;;;;;;;10525450;28;20231;-67
2021/06/13 17:43:46;;;;;;;2.70;1.50;;;;;;;;;;10530366;28;20290;-68
2021/06/13 17:48:49;;;;;;;12.40;7.03;;;;;;;;;;10528722;28;20235;-67
2021/06/13 17:53:53;;;;;;;4.57;1.80;;;;;;;;;;10524940;28;20195;-67
2021/06/13 17:58:55;;;;;;;5.17;2.10;;;;;;;;;;10528557;28;20323;-68
2021/06/13 18:03:59;;;;;;;4.23;1.63;;;;;;;;;;10527739;28;20190;-67
2021/06/13 18:09:02;;;;;;;5.70;2.00;;;;;;;;;;10539120;28;20295;-68
2021/06/13 18:14:04;;;;;;;3.13;1.50;;;;;;;;;;10519996;28;20199;-66
2021/06/13 18:19:08;;;;;;;6.47;3.00;;;;;;;;;;10527137;28;20222;-69
2021/06/13 18:24:11;;;;;;;12.93;6.23;;;;;;;;;;10526759;28;20218;-68
2021/06/13 18:29:13;;;;;;;4.40;1.80;;;;;;;;;;10525650;28;20281;-70
2021/06/13 18:34:18;;;;;;;6.30;1.90;;;;;;;;;;10530115;28;20271;-70
2021/06/13 18:39:22;;;;;;;4.13;1.70;;;;;;;;;;10517655;28;20261;-69
2021/06/13 18:44:24;;;;;;;6.20;2.10;;;;;;;;;;10522474;28;20257;-68
2021/06/13 18:49:28;;;;;;;3.60;1.60;;;;;;;;;;10515588;28;20215;-67
2021/06/13 18:54:31;;;;;;;6.33;2.60;;;;;;;;;;10528706;28;20203;-68
2021/06/13 18:59:34;;;;;;;4.93;2.10;;;;;;;;;;10532956;28;20249;-70
2021/06/13 19:04:38;;;;;;;4.07;1.80;;;;;;;;;;10525768;28;20242;-69
2021/06/13 19:09:41;;;;;;;5.93;2.57;;;;;;;;;;10523255;28;20302;-68
2021/06/13 19:14:43;;;;;;;4.90;1.80;;;;;;;;;;10538919;28;20196;-67
2021/06/13 19:19:47;;;;;;;5.93;2.43;;;;;;;;;;10539748;28;20235;-70
2021/06/13 19:24:50;;;;;;;4.93;2.00;;;;;;;;;;10537655;28;20183;-70
2021/06/13 19:29:53;;;;;;;6.97;3.30;;;;;;;;;;10560775;28;20754;-68
2021/06/13 19:34:57;;;;;;;4.70;2.10;;;;;;;;;;10543089;28;20188;-67
2021/06/13 19:39:59;;;;;;;5.20;2.07;;;;;;;;;;10550062;28;20296;-67
2021/06/13 19:45:02;;;;;;;7.87;2.70;;;;;;;;;;10542443;28;20199;-67
2021/06/13 19:50:08;;;;;;;5.87;2.27;;;;;;;;;;10537223;28;20214;-66
2021/06/13 19:55:11;;;;;;;5.50;2.50;;;;;;;;;;10546823;28;20628;-69
2021/06/13 20:00:14;;;;;;;4.23;2.20;;;;;;;;;;10534160;28;20716;-69
2021/06/13 20:05:18;;;;;;;5.93;2.77;;;;;;;;;;10532959;28;20291;-68
2021/06/13 20:10:20;;;;;;;6.73;2.20;;;;;;;;;;10534185;28;20246;-69
2021/06/13 20:15:23;;;;;;;6.77;2.63;;;;;;;;;;10534143;28;20227;-68
2021/06/13 20:20:27;;;;;;;7.17;2.83;;;;;;;;;;10532784;28;20279;-69
2021/06/13 20:25:30;;;;;;;7.00;2.87;;;;;;;;;;10528884;28;20764;-69
2021/06/13 20:30:32;;;;;;;8.23;3.00;;;;;;;;;;10531966;28;20224;-68
2021/06/13 20:35:36;;;;;;;6.73;3.20;;;;;;;;;;10527931;28;20752;-68
2021/06/13 20:40:39;;;;;;;4.73;2.07;;;;;;;;;;10530362;28;20200;-67
2021/06/13 20:45:42;;;;;;;9.33;4.27;;;;;;;;;;10532775;28;20208;-68
2021/06/13 20:50:46;;;;;;;6.27;2.50;;;;;;;;;;10531543;28;20760;-65
2021/06/13 20:55:50;;;;;;;13.30;7.40;;;;;;;;;;10519836;28;20218;-69
2021/06/13 21:00:52;;;;;;;5.27;2.20;;;;;;;;;;10530002;28;20229;-68
2021/06/13 21:05:56;;;;;;;6.20;2.50;;;;;;;;;;10526774;28;20234;-67
2021/06/13 21:10:59;;;;;;;6.07;2.80;;;;;;;;;;10529215;28;20207;-66
2021/06/13 21:16:01;;;;;;;5.23;2.37;;;;;;;;;;10531391;28;20247;-68
2021/06/13 21:21:06;;;;;;;7.03;2.90;;;;;;;;;;10530333;28;20562;-68
2021/06/13 21:26:08;;;;;;;24.23;15.50;;;;;;;;;;10531579;28;20231;-67
2021/06/13 21:31:13;;;;;;;13.47;6.30;;;;;;;;;;10524050;28;20227;-66
2021/06/13 21:36:17;;;;;;;9.30;4.27;;;;;;;;;;10529473;28;20219;-67
2021/06/13 21:41:20;;;;;;;8.03;2.83;;;;;;;;;;10522915;28;20260;-68
2021/06/13 21:46:22;;;;;;;7.50;3.50;;;;;;;;;;10528915;28;20299;-68
2021/06/13 21:51:26;;;;;;;5.70;2.33;;;;;;;;;;10528670;28;20619;-67
2021/06/13 21:56:29;;;;;;;8.27;2.80;;;;;;;;;;10526725;28;20647;-69
2021/06/13 22:01:32;;;;;;;6.13;2.40;;;;;;;;;;10523967;28;20206;-67
2021/06/13 22:06:36;;;;;;;6.13;1.90;;;;;;;;;;10525102;28;20292;-67
2021/06/13 22:11:38;;;;;;;5.93;2.47;;;;;;;;;;10526740;28;20907;-67
2021/06/13 22:16:41;;;;;;;5.47;2.30;;;;;;;;;;10522478;28;20231;-67
2021/06/13 22:21:45;;;;;;;6.80;2.40;;;;;;;;;;10531002;28;20274;-68
2021/06/13 22:26:47;;;;;;;5.47;2.30;;;;;;;;;;10529752;28;20211;-68
2021/06/13 22:31:53;;;;;;;3.87;1.90;;;;;;;;;;10527709;28;20192;-67
2021/06/13 22:36:57;;;;;;;5.77;2.17;;;;;;;;;;10527972;28;20211;-67
2021/06/13 22:41:59;;;;;;;7.43;2.20;;;;;;;;;;10523809;28;20210;-68
2021/06/13 22:47:02;;;;;;;5.50;2.30;;;;;;;;;;10525904;28;20679;-66
2021/06/13 22:52:07;;;;;;;5.07;2.00;;;;;;;;;;10525660;28;20323;-66
2021/06/13 22:57:10;;;;;;;5.77;2.20;;;;;;;;;;10521826;28;20515;-69
2021/06/13 23:02:14;;;;;;;5.57;2.07;;;;;;;;;;10529321;28;20274;-67
2021/06/13 23:07:20;;;;;;;5.93;2.30;;;;;;;;;;10526570;28;20237;-67
2021/06/13 23:12:22;;;;;;;4.90;2.00;;;;;;;;;;10523956;28;20192;-66
2021/06/13 23:17:25;;;;;;;5.80;2.23;;;;;;;;;;10526896;28;20695;-67
2021/06/13 23:22:29;;;;;;;5.27;2.37;;;;;;;;;;10540084;28;20642;-67
2021/06/13 23:27:31;;;;;;;5.37;2.17;;;;;;;;;;10524393;28;20203;-68
2021/06/13 23:32:34;;;;;;;5.47;2.13;;;;;;;;;;10528915;28;20196;-67
2021/06/13 23:37:38;;;;;;;5.47;2.30;;;;;;;;;;10524637;28;20687;-67
2021/06/13 23:42:41;;;;;;;7.43;2.70;;;;;;;;;;10519722;28;20192;-67
2021/06/13 23:47:44;;;;;;;6.00;2.40;;;;;;;;;;10527998;28;20216;-67
2021/06/13 23:52:48;;;;;;;6.53;2.30;;;;;;;;;;10523320;28;20693;-69
2021/06/13 23:57:50;;;;;;;5.40;2.20;;;;;;;;;;10524152;28;20599;-67
